Go Pro

iShares S&P 500 Growth ETF (IVW) Institutional Ownership

iShares S&P 500 Growth ETF logo
$140.74 +1.82 (+1.31%)
As of 04:10 PM Eastern

Institutional Ownership Changes (13F Filings) for iShares S&P 500 Growth ETF (NYSEARCA:IVW)

Number of
Institutional Buyers
(last 12 months)
1136
Total
Institutional Inflows
(last 12 months)
$3.50B
Number of
Institutional Sellers
(last 12 months)
1027
Total
Institutional Outflows
(last 12 months)
$3.42B
Get IVW Insider Trade Alerts

Want to know when executives and insiders are buying or selling iShares S&P 500 Growth ETF stock? Sign up for InsiderTrades.com's daily newsletter to get the latest insider transactions delivered to your inbox daily.

SMS is currently available in Australia, Belgium, Canada, France, Germany, Ireland, Italy, New Zealand, the Netherlands, Singapore, South Africa, Spain, Switzerland, the United Kingdom, and the United States. By entering your phone number and clicking the sign-up button, you agree to receive periodic text messages from MarketBeat at the phone number you submitted, including texts that may be sent using an automatic telephone dialing system. Message and data rates may apply. Message frequency will vary. Messages will consist of stock alerts, news stories, and partner advertisements/offers. Consent is not a condition of the purchase of any goods or services. Text HELP for help/customer support. Unsubscribe at any time by replying "STOP" to any text message that you receive from MarketBeat or by visiting our mailing preferences page. Read our full terms of service and privacy policy.
Skip Chart & View Institutional Buying and Selling Data

IVW Institutional Buying and Selling by Quarter

iShares S&P 500 Growth ETF Major Shareholders & Ownership History

Reporting DateMajor Shareholder NameShares HeldMarket Value% of PortfolioQuarterly Change in SharesOwnership in CompanyDetails
9/2/2026 MLG Wealth Management DBA Pine Grove Financial Group205,261$28.26M2.9%+0.5%0.038%
9/2/2026 Kinetic Wealth Investment Advisors LLC24,747$3.40M1.6%N/A0.005%
8/27/2026 Corient Private Wealth LP285,498$39.26M0.1%-17.6%0.052%
8/27/2026 Tucker Asset Management LLC4,703$647K0.2%+66.7%0.001%
8/26/2026 HORAN Wealth LLC4,423$608K0.1%-25.5%0.001%
8/26/2026 HighTower Advisors LLC2,021,788$278.06M0.3%-1.4%0.370%
8/25/2026 Advus Financial Partners LLC59,682$8.21M1.9%-1.3%0.011%
8/25/2026 Tobias Financial Advisors Inc.50,150$6.90M0.8%-1.3%0.009%
8/23/2026 Hyundai Investments Co. Ltd.4,551$617K0.7%-50.4%0.001%
8/23/2026 Mason & Associates LLC33,204$4.57M0.9%-4.4%0.006%
8/23/2026 Ameritas Advisory Services LLC170,648$23.47M0.5%+121.8%0.031%
8/23/2026 Straight Path Wealth Management2,083$286K0.1%N/A0.000%
8/23/2026 Wedmont Private Capital32,822$4.55M0.1%-0.7%0.006%
8/23/2026 Kintra Wealth LLC2,035$290K0.0%N/A0.000%
8/23/2026 Morling Financial Advisors LLC1,039$143K0.0%+344.0%0.000%
8/23/2026 Endeavor Private Wealth Inc.80,728$11.10M2.7%+0.3%0.015%
8/23/2026 Beaird Harris Wealth Management LLC1,982$273K0.0%+77.9%0.000%
8/23/2026 HB Wealth Management LLC2,200,705$302.66M1.7%-1.6%0.403%
8/23/2026 Hutchens & Kramer Investment Management Group LLC14,880$2.05M0.6%-2.0%0.003%
8/23/2026 Asset Allocation Strategies LLC24,560$3.38M0.5%-5.2%0.004%
8/23/2026 Angeles Wealth Management LLC26,324$3.62M0.1%+83.5%0.005%
8/23/2026 Ridgeline Wealth LLC1,513$208K0.1%N/A0.000%
8/23/2026 Azimuth Capital Investment Management LLC10,892$1.50M0.1%+12.8%0.002%
8/23/2026 Kaydan Wealth Management Inc.20,893$2.87M0.9%+2.1%0.004%
8/22/2026 Beacon Hill Wealth Management LTD.2,818$388K0.3%N/A0.001%
8/22/2026 Advisory Solutions Group LLC3,762$517K0.2%N/A0.001%
8/22/2026 Compass Financial Management LLC3,301$465K0.1%N/A0.001%
8/22/2026 NI Acquisitions Company LLC1,505$207K0.1%N/A0.000%
8/22/2026 NBH Bank27,039$3.72M1.6%N/A0.005%
8/22/2026 Tenet Wealth Partners LLC6,492$859K0.6%N/A0.001%
8/22/2026 Old Mission Investment Co LLC49,441$6.80M1.4%N/A0.009%
8/22/2026 Montgomery Financial Services LLC568$78K0.1%N/A0.000%
8/22/2026 Highland Investment Advisors LLC20,426$2.81M1.2%N/A0.004%
8/22/2026 Strive Financial Group LLC595$82K0.0%+183.3%0.000%
8/22/2026 Cassilly Financial Group LLC22,561$3.10M2.3%-0.7%0.004%
8/22/2026 Hopwood Nicholas Hunter42,933$5.91M1.6%N/A0.008%
8/22/2026 Blalock Williams LLC35,835$4.93M3.2%+2.0%0.007%
8/22/2026 Formulate Financial LLC54,414$7.48M7.9%+3.1%0.010%
8/22/2026 BAM Wealth Management LLC6,998$962K0.6%+9.0%0.001%
8/22/2026 Three Seasons Wealth LLC5,755$791K0.1%-66.3%0.001%
My top 3 AI picks for the next decade (Ad)

Alexander Green bought Apple in 1996, recommended Nvidia at a split-adjusted 66 cents in 2004, and picked up Amazon and Netflix under $3 per share in 2005. Now the chief investment strategist at The Oxford Club has identified three AI stocks he believes could be the most profitable investments of the next decade.tc pixel

Click here to get all three AI stock names from Alexander Green
8/22/2026 SMART Wealth LLC25,649$3.53M0.8%+145.2%0.005%
8/22/2026 Retirement Wealth Solutions LLC50,413$6.93M3.8%+7.3%0.009%
8/22/2026 Investor s Fiduciary Advisor Network LLC2,616$359K0.1%-81.7%0.000%
8/22/2026 Rik Saylor Financial Inc.53,005$7.29M4.6%-0.9%0.010%
8/22/2026 LifePlan Investment Advisors Inc.33,691$4.63M1.6%-3.3%0.006%
8/22/2026 NWF Advisory Services Inc.22,601$3.11M0.3%+221.9%0.004%
8/22/2026 TD Waterhouse Canada Inc.8,409$1.15M0.0%-1.8%0.002%
8/22/2026 United Community Bank6,437$885K0.3%+26.5%0.001%
8/22/2026 Kickstand Ventures LLC.56,920$7.83M1.4%-5.0%0.010%
8/22/2026 Lakeshore Financial Planning Inc.23,601$3.25M1.0%+6.8%0.004%
8/22/2026 Concurrent Investment Advisors LLC299,260$41.16M0.3%+6.9%0.055%
8/22/2026 Power Wealth Management LLC23,138$3.18M1.1%-8.0%0.004%
8/21/2026 Kraft Davis & Associates LLC36,801$5.00M1.0%-0.5%0.007%
8/21/2026 Beacon Capital Management LLC136,146$18.72M2.7%+231.3%0.025%
8/21/2026 Greenspring Advisors LLC10,501$1.44M0.1%-12.8%0.002%
8/21/2026 Rodgers & Associates LTD139,031$19.12M1.4%-3.3%0.025%
8/21/2026 Continuum Advisory LLC24,896$3.42M0.3%+37.0%0.005%
8/21/2026 Round Rock Advisors LLC30,832$4.24M0.5%-1.5%0.006%
8/21/2026 Buttonwood Financial Group LLC1,487$204K0.1%N/A0.000%
8/21/2026 MBA Advisors LLC18,525$2.55M0.8%-2.7%0.003%
8/21/2026 Sunburst Financial Group LLC1,469$202K0.0%N/A0.000%
8/21/2026 Atticus Wealth Management LLC7,791$1.07M0.3%-2.4%0.001%
8/21/2026 Natural Investments LLC1,890$259K0.1%N/A0.000%
8/21/2026 XML Financial LLC44,004$6.05M0.4%-1.5%0.008%
8/21/2026 Beacon Financial Advisory LLC21,582$2.97M0.6%+3.5%0.004%
8/21/2026 Tsfg LLC18,468$2.54M0.3%-0.4%0.003%
8/21/2026 KFA Private Wealth Group LLC10,183$1.40M0.4%+9.5%0.002%
8/21/2026 Secure Asset Management LLC3,941$542K0.1%+3.9%0.001%
8/21/2026 R. W. Roge & Company Inc.40,070$5.51M2.3%-0.5%0.007%
8/21/2026 Chesapeake Wealth Management2,260$311K0.1%-3.5%0.000%
8/21/2026 Independence Bank of Kentucky9,142$1.26M0.1%+1,641.3%0.002%
8/21/2026 Acorn Wealth Advisors LLC1,743$240K0.1%-13.9%0.000%
8/21/2026 Investors Research Corp5,414$745K0.1%+1.4%0.001%
8/21/2026 Rinkey Investments6,022$828K0.2%+1.7%0.001%
8/21/2026 Financial Life Advisors337,681$46.44M13.2%-6.5%0.062%
8/20/2026 Nwam LLC47,402$6.52M0.3%+23.1%0.009%
8/20/2026 NorthLanding Financial Partners LLC10,420$1.43M1.2%+19.1%0.002%
8/20/2026 Renasant Bank10,202$1.40M0.9%-23.3%0.002%
8/20/2026 Rehmann Capital Advisory Group1,303,025$179.28M7.5%+11.9%0.239%
8/20/2026 Orgel Wealth Management LLC14,710$2.02M0.0%N/A0.003%
8/20/2026 JNBA Financial Advisors7,778$1.07M0.1%-4.1%0.001%
8/20/2026 Advocacy Wealth Management LLC807,434$111.05M1.7%-2.6%0.148%
8/20/2026 Ancora Advisors LLC129,830$17.86M0.3%+14.2%0.024%
8/20/2026 Sigma Planning Corp427,683$58.82M1.5%-1.1%0.078%
8/20/2026 Benjamin Edwards Inc.48,847$6.72M0.1%+4.8%0.009%
8/20/2026 GTS Securities LLC42,407$5.84M0.1%+17.9%0.008%
8/20/2026 IMC Chicago LLC5,070$697K0.0%-7.6%0.001%
8/20/2026 Flputnam Investment Management Co.16,969$2.33M0.0%+2.9%0.003%
8/20/2026 Northwestern Mutual Wealth Management Co.1,657,682$227.98M0.1%+0.3%0.304%
8/20/2026 Wedbush Securities Inc.16,890$2.32M0.1%-1.4%0.003%
Ready to give options a try? Your first trade (Ticker included) -INSIDE (Ad)

Tired of trying tactic after tactic when it comes to options trades... only to be met with market noise and stinging losses? Dave Aquino is giving away the exact 11-hour options strategy he uses in volatile markets. You get the plain English blueprint behind the strategy and the very same "rinse and repeat" ticker he's traded nearly 900 times with a 95.3% success rate. It's so simple to understand, you could trade it tomorrow.tc pixel

8/20/2026 Cullinan Associates Inc.3,004$413K0.0%N/A0.001%
8/20/2026 Greenleaf Trust311,771$42.88M0.4%+1.2%0.057%
8/20/2026 Mcmorgan & Co. LLC186,940$25.71M3.9%-4.8%0.034%
8/19/2026 Trustmark Bank Trust Department27,939$3.84M0.2%-0.3%0.005%
8/19/2026 UBS AM a distinct business unit of UBS ASSET MANAGEMENT AMERICAS LLC100,895$13.88M0.0%-26.0%0.018%
8/19/2026 Washington Trust Bank12,074$1.66M0.1%-3.7%0.002%
8/19/2026 Ferguson Wellman Capital Management Inc.11,886$1.64M0.0%+13.4%0.002%
8/17/2026 Blue Edge Capital LLC296,902$40.83M4.9%N/A0.054%
8/13/2026 Capital Square LLC27,769$3.85M1.7%N/A0.005%
8/12/2026 Compass Financial Management LLC3,301$465K0.1%N/A0.001%


IVW Institutional Ownership - Frequently Asked Questions

During the previous two years, 2,180 institutional investors and hedge funds held shares of iShares S&P 500 Growth ETF. The most heavily invested institutionals were Envestnet Asset Management Inc. ($5.50B), JPMorgan Chase & Co. ($5.02B), Morgan Stanley ($4.15B), LPL Financial LLC ($2.44B), Bank of America Corp DE ($2.24B), Wells Fargo & Company MN ($1.85B), and UBS Group AG ($1.07B).Learn more on iShares S&P 500 Growth ETF's institutional investors.

Of the 1,778 institutional investors that purchased iShares S&P 500 Growth ETF's stock in the last 24 months, the following investors and hedge funds have bought the highest volume of shares: Raymond James Financial Inc. ($4.60M), LPL Financial LLC ($3.86M), Wealthfront Advisers LLC ($3.45M), FIL Ltd ($3.05M), The Manufacturers Life Insurance Company ($2.54M), Envestnet Asset Management Inc. ($2.53M), and Sofi Wealth LLC ($2.28M).

Institutional investors have bought a total of 28,920,941 shares in the last 24 months. This purchase volume represents approximately $3.50B in transactions.

Of the 1,027 institutional investors that sold iShares S&P 500 Growth ETF's stock in the last 24 months, the following investors and hedge funds have sold the highest volume of shares: M&T Bank Corp ($4.31M), JPMorgan Chase & Co. ($1.67M), Goldman Sachs Group Inc. ($1.53M), Northwestern Mutual Wealth Management Co. ($1.35M), FIL Ltd ($948.24K), Kovitz Investment Group Partners LLC ($874.83K), and Laurel Wealth Advisors LLC ($764.44K).

Institutional investors have sold a total of 28,080,984 shares in the last 24 months. This volume of shares sold represents approximately $3.42B in transactions.



Institutional ownership data for NYSEARCA:IVW is compiled from quarterly 13F filings submitted to the U.S. Securities and Exchange Commission (SEC), with the most recent received on 9/2/2026. New 13F filings are added each quarter as they're published.
From Our Partners